sensor_id;sensor_type;location;lat;lon;timestamp;temperature;humidity
55642;DHT22;41509;53.108;6.100;2023-06-19T00:01:41;21.20;99.90
55642;DHT22;41509;53.108;6.100;2023-06-19T00:04:07;21.20;99.90
55642;DHT22;41509;53.108;6.100;2023-06-19T00:06:32;21.30;99.90
55642;DHT22;41509;53.108;6.100;2023-06-19T00:08:58;21.30;99.90
55642;DHT22;41509;53.108;6.100;2023-06-19T00:11:23;21.30;99.90
55642;DHT22;41509;53.108;6.100;2023-06-19T00:13:49;21.30;99.90
55642;DHT22;41509;53.108;6.100;2023-06-19T00:16:15;21.20;99.90
55642;DHT22;41509;53.108;6.100;2023-06-19T00:18:40;21.30;99.90
55642;DHT22;41509;53.108;6.100;2023-06-19T00:21:07;21.30;99.90
55642;DHT22;41509;53.108;6.100;2023-06-19T00:23:33;21.30;99.90
55642;DHT22;41509;53.108;6.100;2023-06-19T00:25:59;21.20;99.90
55642;DHT22;41509;53.108;6.100;2023-06-19T00:28:27;21.20;99.90
55642;DHT22;41509;53.108;6.100;2023-06-19T00:30:52;21.20;99.90
55642;DHT22;41509;53.108;6.100;2023-06-19T00:33:18;21.20;99.90
55642;DHT22;41509;53.108;6.100;2023-06-19T00:35:43;21.20;99.90
55642;DHT22;41509;53.108;6.100;2023-06-19T00:38:09;21.20;99.90
55642;DHT22;41509;53.108;6.100;2023-06-19T00:40:34;21.20;99.90
55642;DHT22;41509;53.108;6.100;2023-06-19T00:43:00;21.20;99.90
55642;DHT22;41509;53.108;6.100;2023-06-19T00:45:26;21.20;99.90
55642;DHT22;41509;53.108;6.100;2023-06-19T00:47:52;21.20;99.90
55642;DHT22;41509;53.108;6.100;2023-06-19T00:50:18;21.20;99.90
55642;DHT22;41509;53.108;6.100;2023-06-19T00:52:44;21.20;99.90
55642;DHT22;41509;53.108;6.100;2023-06-19T00:55:09;21.20;99.90
55642;DHT22;41509;53.108;6.100;2023-06-19T00:57:35;21.20;99.90
55642;DHT22;41509;53.108;6.100;2023-06-19T01:00:01;21.10;99.90
55642;DHT22;41509;53.108;6.100;2023-06-19T01:02:30;21.20;99.90
55642;DHT22;41509;53.108;6.100;2023-06-19T01:04:56;21.10;99.90
55642;DHT22;41509;53.108;6.100;2023-06-19T01:10:07;21.20;99.90
55642;DHT22;41509;53.108;6.100;2023-06-19T01:12:36;21.20;99.90
55642;DHT22;41509;53.108;6.100;2023-06-19T01:15:03;21.20;99.90
55642;DHT22;41509;53.108;6.100;2023-06-19T01:17:29;21.10;99.90
55642;DHT22;41509;53.108;6.100;2023-06-19T01:19:55;21.20;99.90
55642;DHT22;41509;53.108;6.100;2023-06-19T01:22:28;21.10;99.90
55642;DHT22;41509;53.108;6.100;2023-06-19T01:24:53;21.20;99.90
55642;DHT22;41509;53.108;6.100;2023-06-19T01:27:19;21.10;99.90
55642;DHT22;41509;53.108;6.100;2023-06-19T01:29:45;21.10;99.90
55642;DHT22;41509;53.108;6.100;2023-06-19T01:32:13;21.20;99.90
55642;DHT22;41509;53.108;6.100;2023-06-19T01:34:43;21.10;99.90
55642;DHT22;41509;53.108;6.100;2023-06-19T01:37:09;21.10;99.90
55642;DHT22;41509;53.108;6.100;2023-06-19T01:39:35;21.10;99.90
55642;DHT22;41509;53.108;6.100;2023-06-19T01:42:02;21.10;99.90
55642;DHT22;41509;53.108;6.100;2023-06-19T01:44:30;21.10;99.90
55642;DHT22;41509;53.108;6.100;2023-06-19T01:46:55;21.10;99.90
55642;DHT22;41509;53.108;6.100;2023-06-19T01:49:21;21.10;99.90
55642;DHT22;41509;53.108;6.100;2023-06-19T01:51:46;21.10;99.90
55642;DHT22;41509;53.108;6.100;2023-06-19T01:54:12;21.10;99.90
55642;DHT22;41509;53.108;6.100;2023-06-19T01:56:38;21.10;99.90
55642;DHT22;41509;53.108;6.100;2023-06-19T01:59:06;21.10;99.90
55642;DHT22;41509;53.108;6.100;2023-06-19T02:01:32;21.10;99.90
55642;DHT22;41509;53.108;6.100;2023-06-19T02:04:00;21.10;99.90
55642;DHT22;41509;53.108;6.100;2023-06-19T02:06:25;21.10;99.90
55642;DHT22;41509;53.108;6.100;2023-06-19T02:08:51;21.10;99.90
55642;DHT22;41509;53.108;6.100;2023-06-19T02:11:16;21.10;99.90
55642;DHT22;41509;53.108;6.100;2023-06-19T02:13:42;21.10;99.90
55642;DHT22;41509;53.108;6.100;2023-06-19T02:16:07;21.00;99.90
55642;DHT22;41509;53.108;6.100;2023-06-19T02:18:35;21.10;99.90
55642;DHT22;41509;53.108;6.100;2023-06-19T02:21:01;21.00;99.90
55642;DHT22;41509;53.108;6.100;2023-06-19T02:23:26;21.10;99.90
55642;DHT22;41509;53.108;6.100;2023-06-19T02:25:52;21.00;99.90
55642;DHT22;41509;53.108;6.100;2023-06-19T02:28:17;21.00;99.90
55642;DHT22;41509;53.108;6.100;2023-06-19T02:30:53;21.00;99.90
55642;DHT22;41509;53.108;6.100;2023-06-19T02:33:19;21.00;99.90
55642;DHT22;41509;53.108;6.100;2023-06-19T02:35:44;21.00;99.90
55642;DHT22;41509;53.108;6.100;2023-06-19T02:38:10;21.00;99.90
55642;DHT22;41509;53.108;6.100;2023-06-19T02:40:38;21.00;99.90
55642;DHT22;41509;53.108;6.100;2023-06-19T02:43:05;21.00;99.90
55642;DHT22;41509;53.108;6.100;2023-06-19T02:45:31;21.00;99.90
55642;DHT22;41509;53.108;6.100;2023-06-19T02:47:59;20.90;99.90
55642;DHT22;41509;53.108;6.100;2023-06-19T02:50:25;20.90;99.90
55642;DHT22;41509;53.108;6.100;2023-06-19T02:52:50;20.90;99.90
55642;DHT22;41509;53.108;6.100;2023-06-19T02:55:16;20.90;99.90
55642;DHT22;41509;53.108;6.100;2023-06-19T02:57:42;20.90;99.90
55642;DHT22;41509;53.108;6.100;2023-06-19T03:00:07;20.80;99.90
55642;DHT22;41509;53.108;6.100;2023-06-19T03:02:34;20.80;99.90
55642;DHT22;41509;53.108;6.100;2023-06-19T03:05:03;20.80;99.90
55642;DHT22;41509;53.108;6.100;2023-06-19T03:07:28;20.80;99.90
55642;DHT22;41509;53.108;6.100;2023-06-19T03:09:54;20.80;99.90
55642;DHT22;41509;53.108;6.100;2023-06-19T03:12:19;20.80;99.90
55642;DHT22;41509;53.108;6.100;2023-06-19T03:14:45;20.80;99.90
55642;DHT22;41509;53.108;6.100;2023-06-19T03:17:12;20.80;99.90
55642;DHT22;41509;53.108;6.100;2023-06-19T03:19:37;20.80;99.90
55642;DHT22;41509;53.108;6.100;2023-06-19T03:22:03;20.80;99.90
55642;DHT22;41509;53.108;6.100;2023-06-19T03:24:28;20.80;99.90
55642;DHT22;41509;53.108;6.100;2023-06-19T03:26:54;20.80;99.90
55642;DHT22;41509;53.108;6.100;2023-06-19T03:29:19;20.70;99.90
55642;DHT22;41509;53.108;6.100;2023-06-19T03:31:45;20.70;99.90
55642;DHT22;41509;53.108;6.100;2023-06-19T03:34:11;20.70;99.90
55642;DHT22;41509;53.108;6.100;2023-06-19T03:36:37;20.70;99.90
55642;DHT22;41509;53.108;6.100;2023-06-19T03:39:04;20.70;99.90
55642;DHT22;41509;53.108;6.100;2023-06-19T03:41:29;20.70;99.90
55642;DHT22;41509;53.108;6.100;2023-06-19T03:43:55;20.70;99.90
55642;DHT22;41509;53.108;6.100;2023-06-19T03:46:20;20.70;99.90
55642;DHT22;41509;53.108;6.100;2023-06-19T03:48:46;20.70;99.90
55642;DHT22;41509;53.108;6.100;2023-06-19T03:51:11;20.70;99.90
55642;DHT22;41509;53.108;6.100;2023-06-19T03:53:37;20.70;99.90
55642;DHT22;41509;53.108;6.100;2023-06-19T03:56:02;20.70;99.90
55642;DHT22;41509;53.108;6.100;2023-06-19T03:58:28;20.60;99.90
55642;DHT22;41509;53.108;6.100;2023-06-19T04:00:53;20.60;99.90
55642;DHT22;41509;53.108;6.100;2023-06-19T04:03:19;20.60;99.90
55642;DHT22;41509;53.108;6.100;2023-06-19T04:05:44;20.60;99.90
55642;DHT22;41509;53.108;6.100;2023-06-19T04:08:10;20.60;99.90
55642;DHT22;41509;53.108;6.100;2023-06-19T04:10:35;20.60;99.90
55642;DHT22;41509;53.108;6.100;2023-06-19T04:13:01;20.50;99.90
55642;DHT22;41509;53.108;6.100;2023-06-19T04:15:26;20.50;99.90
55642;DHT22;41509;53.108;6.100;2023-06-19T04:17:52;20.50;99.90
55642;DHT22;41509;53.108;6.100;2023-06-19T04:20:18;20.50;99.90
55642;DHT22;41509;53.108;6.100;2023-06-19T04:22:43;20.40;99.90
55642;DHT22;41509;53.108;6.100;2023-06-19T04:25:09;20.40;99.90
55642;DHT22;41509;53.108;6.100;2023-06-19T04:27:38;20.40;99.90
55642;DHT22;41509;53.108;6.100;2023-06-19T04:30:04;20.40;99.90
55642;DHT22;41509;53.108;6.100;2023-06-19T04:32:30;20.40;99.90
55642;DHT22;41509;53.108;6.100;2023-06-19T04:34:55;20.30;99.90
55642;DHT22;41509;53.108;6.100;2023-06-19T04:37:21;20.30;99.90
55642;DHT22;41509;53.108;6.100;2023-06-19T04:39:46;20.30;99.90
55642;DHT22;41509;53.108;6.100;2023-06-19T04:42:16;20.30;99.90
55642;DHT22;41509;53.108;6.100;2023-06-19T04:44:47;20.30;99.90
55642;DHT22;41509;53.108;6.100;2023-06-19T04:47:13;20.40;99.90
55642;DHT22;41509;53.108;6.100;2023-06-19T04:49:39;20.40;99.90
55642;DHT22;41509;53.108;6.100;2023-06-19T04:52:04;20.40;99.90
55642;DHT22;41509;53.108;6.100;2023-06-19T04:54:30;20.40;99.90
55642;DHT22;41509;53.108;6.100;2023-06-19T04:56:58;20.40;99.90
55642;DHT22;41509;53.108;6.100;2023-06-19T04:59:23;20.40;99.90
55642;DHT22;41509;53.108;6.100;2023-06-19T05:01:49;20.40;99.90
55642;DHT22;41509;53.108;6.100;2023-06-19T05:04:14;20.40;99.90
55642;DHT22;41509;53.108;6.100;2023-06-19T05:06:40;20.40;99.90
55642;DHT22;41509;53.108;6.100;2023-06-19T05:09:05;20.50;99.90
55642;DHT22;41509;53.108;6.100;2023-06-19T05:11:31;20.50;99.90
55642;DHT22;41509;53.108;6.100;2023-06-19T05:13:56;20.50;99.90
55642;DHT22;41509;53.108;6.100;2023-06-19T05:16:22;20.50;99.90
55642;DHT22;41509;53.108;6.100;2023-06-19T05:18:48;20.50;99.90
55642;DHT22;41509;53.108;6.100;2023-06-19T05:21:14;20.50;99.90
55642;DHT22;41509;53.108;6.100;2023-06-19T05:23:40;20.60;99.90
55642;DHT22;41509;53.108;6.100;2023-06-19T05:26:06;20.50;99.90
55642;DHT22;41509;53.108;6.100;2023-06-19T05:28:31;20.60;99.90
55642;DHT22;41509;53.108;6.100;2023-06-19T05:30:57;20.60;99.90
55642;DHT22;41509;53.108;6.100;2023-06-19T05:33:23;20.60;99.90
55642;DHT22;41509;53.108;6.100;2023-06-19T05:35:49;20.60;99.90
55642;DHT22;41509;53.108;6.100;2023-06-19T05:38:18;20.60;99.90
55642;DHT22;41509;53.108;6.100;2023-06-19T05:40:43;20.60;99.90
55642;DHT22;41509;53.108;6.100;2023-06-19T05:43:09;20.50;99.90
55642;DHT22;41509;53.108;6.100;2023-06-19T05:45:34;20.50;99.90
55642;DHT22;41509;53.108;6.100;2023-06-19T05:48:00;20.60;99.90
55642;DHT22;41509;53.108;6.100;2023-06-19T05:50:25;20.60;99.90
55642;DHT22;41509;53.108;6.100;2023-06-19T05:52:51;20.60;99.90
55642;DHT22;41509;53.108;6.100;2023-06-19T05:55:16;20.60;99.90
55642;DHT22;41509;53.108;6.100;2023-06-19T05:57:42;20.70;99.90
55642;DHT22;41509;53.108;6.100;2023-06-19T06:00:08;20.70;99.90
55642;DHT22;41509;53.108;6.100;2023-06-19T06:02:37;20.70;99.90
55642;DHT22;41509;53.108;6.100;2023-06-19T06:05:02;20.70;99.90
55642;DHT22;41509;53.108;6.100;2023-06-19T06:07:28;20.70;99.90
55642;DHT22;41509;53.108;6.100;2023-06-19T06:09:55;20.80;99.90
55642;DHT22;41509;53.108;6.100;2023-06-19T06:12:20;20.80;99.90
55642;DHT22;41509;53.108;6.100;2023-06-19T06:14:46;20.90;99.90
55642;DHT22;41509;53.108;6.100;2023-06-19T06:17:11;20.90;99.90
55642;DHT22;41509;53.108;6.100;2023-06-19T06:19:37;20.90;99.90
55642;DHT22;41509;53.108;6.100;2023-06-19T06:22:04;20.90;99.90
55642;DHT22;41509;53.108;6.100;2023-06-19T06:24:29;20.90;99.90
55642;DHT22;41509;53.108;6.100;2023-06-19T06:26:55;20.90;99.90
55642;DHT22;41509;53.108;6.100;2023-06-19T06:29:20;20.90;99.90
55642;DHT22;41509;53.108;6.100;2023-06-19T06:31:46;20.90;99.90
55642;DHT22;41509;53.108;6.100;2023-06-19T06:34:12;20.80;99.90
55642;DHT22;41509;53.108;6.100;2023-06-19T06:36:38;20.80;99.90
55642;DHT22;41509;53.108;6.100;2023-06-19T06:39:03;20.80;99.90
55642;DHT22;41509;53.108;6.100;2023-06-19T06:41:29;20.70;99.90
55642;DHT22;41509;53.108;6.100;2023-06-19T06:43:55;20.50;99.90
55642;DHT22;41509;53.108;6.100;2023-06-19T06:46:21;20.50;99.90
55642;DHT22;41509;53.108;6.100;2023-06-19T06:48:46;20.40;99.90
55642;DHT22;41509;53.108;6.100;2023-06-19T06:51:12;20.30;99.90
55642;DHT22;41509;53.108;6.100;2023-06-19T06:53:37;20.20;99.90
55642;DHT22;41509;53.108;6.100;2023-06-19T06:56:03;20.20;99.90
55642;DHT22;41509;53.108;6.100;2023-06-19T06:58:28;20.10;99.90
55642;DHT22;41509;53.108;6.100;2023-06-19T07:00:55;20.10;99.90
55642;DHT22;41509;53.108;6.100;2023-06-19T07:03:20;20.10;99.90
55642;DHT22;41509;53.108;6.100;2023-06-19T07:05:47;20.00;99.90
55642;DHT22;41509;53.108;6.100;2023-06-19T07:08:12;20.00;99.90
55642;DHT22;41509;53.108;6.100;2023-06-19T07:10:38;20.00;99.90
55642;DHT22;41509;53.108;6.100;2023-06-19T07:13:03;20.00;99.90
55642;DHT22;41509;53.108;6.100;2023-06-19T07:15:29;20.00;99.90
55642;DHT22;41509;53.108;6.100;2023-06-19T07:17:55;20.00;99.90
55642;DHT22;41509;53.108;6.100;2023-06-19T07:20:20;20.00;99.90
55642;DHT22;41509;53.108;6.100;2023-06-19T07:22:46;19.90;99.90
55642;DHT22;41509;53.108;6.100;2023-06-19T07:25:12;20.00;99.90
55642;DHT22;41509;53.108;6.100;2023-06-19T07:27:38;20.00;99.90
55642;DHT22;41509;53.108;6.100;2023-06-19T07:30:03;19.90;99.90
55642;DHT22;41509;53.108;6.100;2023-06-19T07:32:29;19.90;99.90
55642;DHT22;41509;53.108;6.100;2023-06-19T07:34:55;19.90;99.90
55642;DHT22;41509;53.108;6.100;2023-06-19T07:37:20;19.90;99.90
55642;DHT22;41509;53.108;6.100;2023-06-19T07:39:46;19.90;99.90
55642;DHT22;41509;53.108;6.100;2023-06-19T07:42:15;19.90;99.90
55642;DHT22;41509;53.108;6.100;2023-06-19T07:44:41;19.90;99.90
55642;DHT22;41509;53.108;6.100;2023-06-19T07:47:07;20.00;99.90
55642;DHT22;41509;53.108;6.100;2023-06-19T07:49:33;20.00;99.90
55642;DHT22;41509;53.108;6.100;2023-06-19T07:51:59;19.90;99.90
55642;DHT22;41509;53.108;6.100;2023-06-19T07:54:25;20.00;99.90
55642;DHT22;41509;53.108;6.100;2023-06-19T07:56:50;20.00;99.90
55642;DHT22;41509;53.108;6.100;2023-06-19T07:59:16;19.90;99.90
55642;DHT22;41509;53.108;6.100;2023-06-19T08:01:42;20.00;99.90
55642;DHT22;41509;53.108;6.100;2023-06-19T08:04:08;19.90;99.90
55642;DHT22;41509;53.108;6.100;2023-06-19T08:06:33;19.90;99.90
55642;DHT22;41509;53.108;6.100;2023-06-19T08:08:59;19.90;99.90
55642;DHT22;41509;53.108;6.100;2023-06-19T08:11:24;19.90;99.90
55642;DHT22;41509;53.108;6.100;2023-06-19T08:13:50;19.80;99.90
55642;DHT22;41509;53.108;6.100;2023-06-19T08:16:15;19.80;99.90
55642;DHT22;41509;53.108;6.100;2023-06-19T08:18:41;19.80;99.90
55642;DHT22;41509;53.108;6.100;2023-06-19T08:21:07;19.80;99.90
55642;DHT22;41509;53.108;6.100;2023-06-19T08:23:33;19.80;99.90
55642;DHT22;41509;53.108;6.100;2023-06-19T08:25:58;19.80;99.90
55642;DHT22;41509;53.108;6.100;2023-06-19T08:28:24;19.80;99.90
55642;DHT22;41509;53.108;6.100;2023-06-19T08:30:49;19.80;99.90
55642;DHT22;41509;53.108;6.100;2023-06-19T08:33:15;19.90;99.90
55642;DHT22;41509;53.108;6.100;2023-06-19T08:35:41;19.80;99.90
55642;DHT22;41509;53.108;6.100;2023-06-19T08:38:06;19.90;99.90
55642;DHT22;41509;53.108;6.100;2023-06-19T08:40:32;19.80;99.90
55642;DHT22;41509;53.108;6.100;2023-06-19T08:42:58;19.80;99.90
55642;DHT22;41509;53.108;6.100;2023-06-19T08:45:25;19.80;99.90
55642;DHT22;41509;53.108;6.100;2023-06-19T08:47:57;19.80;99.90
55642;DHT22;41509;53.108;6.100;2023-06-19T08:50:22;19.80;99.90
55642;DHT22;41509;53.108;6.100;2023-06-19T08:52:48;19.80;99.90
55642;DHT22;41509;53.108;6.100;2023-06-19T08:55:13;19.80;99.90
55642;DHT22;41509;53.108;6.100;2023-06-19T08:57:39;19.70;99.90
55642;DHT22;41509;53.108;6.100;2023-06-19T09:00:05;19.80;99.90
55642;DHT22;41509;53.108;6.100;2023-06-19T09:02:40;19.80;99.90
55642;DHT22;41509;53.108;6.100;2023-06-19T09:05:13;19.70;99.90
55642;DHT22;41509;53.108;6.100;2023-06-19T09:07:38;19.80;99.90
55642;DHT22;41509;53.108;6.100;2023-06-19T09:10:11;19.80;99.90
55642;DHT22;41509;53.108;6.100;2023-06-19T09:12:37;19.80;99.90
55642;DHT22;41509;53.108;6.100;2023-06-19T09:15:10;19.80;99.90
55642;DHT22;41509;53.108;6.100;2023-06-19T09:17:36;19.80;99.90
55642;DHT22;41509;53.108;6.100;2023-06-19T09:20:02;19.70;99.90
55642;DHT22;41509;53.108;6.100;2023-06-19T09:22:30;19.70;99.90
55642;DHT22;41509;53.108;6.100;2023-06-19T09:24:59;19.70;99.90
55642;DHT22;41509;53.108;6.100;2023-06-19T09:27:25;19.70;99.90
55642;DHT22;41509;53.108;6.100;2023-06-19T09:29:56;19.70;99.90
55642;DHT22;41509;53.108;6.100;2023-06-19T09:32:23;19.70;99.90
55642;DHT22;41509;53.108;6.100;2023-06-19T09:34:49;19.60;99.90
55642;DHT22;41509;53.108;6.100;2023-06-19T09:37:18;19.70;99.90
55642;DHT22;41509;53.108;6.100;2023-06-19T09:39:46;19.70;99.90
55642;DHT22;41509;53.108;6.100;2023-06-19T09:42:14;19.70;99.90
55642;DHT22;41509;53.108;6.100;2023-06-19T09:44:41;19.80;99.90
55642;DHT22;41509;53.108;6.100;2023-06-19T09:47:18;19.80;99.90
55642;DHT22;41509;53.108;6.100;2023-06-19T09:49:49;19.90;99.90
55642;DHT22;41509;53.108;6.100;2023-06-19T09:52:19;19.90;99.90
55642;DHT22;41509;53.108;6.100;2023-06-19T09:54:46;20.00;99.90
55642;DHT22;41509;53.108;6.100;2023-06-19T09:57:11;20.00;99.90
55642;DHT22;41509;53.108;6.100;2023-06-19T09:59:38;20.00;99.90
55642;DHT22;41509;53.108;6.100;2023-06-19T10:02:05;20.00;99.90
55642;DHT22;41509;53.108;6.100;2023-06-19T10:04:41;20.00;99.90
55642;DHT22;41509;53.108;6.100;2023-06-19T10:07:14;19.90;99.90
55642;DHT22;41509;53.108;6.100;2023-06-19T10:09:40;19.90;99.90
55642;DHT22;41509;53.108;6.100;2023-06-19T10:12:11;19.90;99.90
55642;DHT22;41509;53.108;6.100;2023-06-19T10:14:44;19.90;99.90
55642;DHT22;41509;53.108;6.100;2023-06-19T10:17:10;19.90;99.90
55642;DHT22;41509;53.108;6.100;2023-06-19T10:19:36;19.90;99.90
55642;DHT22;41509;53.108;6.100;2023-06-19T10:22:02;19.90;99.90
55642;DHT22;41509;53.108;6.100;2023-06-19T10:24:28;19.90;99.90
55642;DHT22;41509;53.108;6.100;2023-06-19T10:27:01;20.00;99.90
55642;DHT22;41509;53.108;6.100;2023-06-19T10:29:40;20.10;99.90
55642;DHT22;41509;53.108;6.100;2023-06-19T10:32:06;20.20;99.90
55642;DHT22;41509;53.108;6.100;2023-06-19T10:34:35;20.30;99.90
55642;DHT22;41509;53.108;6.100;2023-06-19T10:37:00;20.50;99.90
55642;DHT22;41509;53.108;6.100;2023-06-19T10:39:26;20.60;99.90
55642;DHT22;41509;53.108;6.100;2023-06-19T10:41:51;20.80;99.90
55642;DHT22;41509;53.108;6.100;2023-06-19T10:44:17;20.80;99.90
55642;DHT22;41509;53.108;6.100;2023-06-19T10:46:43;20.80;99.90
55642;DHT22;41509;53.108;6.100;2023-06-19T10:49:08;20.80;99.90
55642;DHT22;41509;53.108;6.100;2023-06-19T10:51:36;20.70;99.90
55642;DHT22;41509;53.108;6.100;2023-06-19T10:54:02;20.70;99.90
55642;DHT22;41509;53.108;6.100;2023-06-19T10:56:27;20.80;99.90
55642;DHT22;41509;53.108;6.100;2023-06-19T11:01:31;20.90;99.90
55642;DHT22;41509;53.108;6.100;2023-06-19T11:03:57;21.00;99.90
55642;DHT22;41509;53.108;6.100;2023-06-19T11:06:24;21.00;99.90
55642;DHT22;41509;53.108;6.100;2023-06-19T11:08:52;21.10;99.90
55642;DHT22;41509;53.108;6.100;2023-06-19T11:11:18;21.20;99.90
55642;DHT22;41509;53.108;6.100;2023-06-19T11:13:45;21.10;99.90
55642;DHT22;41509;53.108;6.100;2023-06-19T11:16:11;21.10;99.90
55642;DHT22;41509;53.108;6.100;2023-06-19T11:18:36;21.10;99.90
55642;DHT22;41509;53.108;6.100;2023-06-19T11:21:02;21.10;99.90
55642;DHT22;41509;53.108;6.100;2023-06-19T11:23:28;21.10;99.90
55642;DHT22;41509;53.108;6.100;2023-06-19T11:25:54;21.20;99.90
55642;DHT22;41509;53.108;6.100;2023-06-19T11:28:26;21.30;99.90
55642;DHT22;41509;53.108;6.100;2023-06-19T11:30:59;21.20;99.90
55642;DHT22;41509;53.108;6.100;2023-06-19T11:33:25;21.20;99.90
55642;DHT22;41509;53.108;6.100;2023-06-19T11:35:51;21.10;99.90
55642;DHT22;41509;53.108;6.100;2023-06-19T11:38:20;21.20;99.90
55642;DHT22;41509;53.108;6.100;2023-06-19T11:40:47;21.30;99.90
55642;DHT22;41509;53.108;6.100;2023-06-19T11:43:22;21.30;99.90
55642;DHT22;41509;53.108;6.100;2023-06-19T11:45:48;21.30;99.90
55642;DHT22;41509;53.108;6.100;2023-06-19T11:48:21;21.30;99.90
55642;DHT22;41509;53.108;6.100;2023-06-19T11:50:46;21.30;99.90
55642;DHT22;41509;53.108;6.100;2023-06-19T11:53:12;21.40;99.90
55642;DHT22;41509;53.108;6.100;2023-06-19T11:55:38;21.40;99.90
55642;DHT22;41509;53.108;6.100;2023-06-19T11:58:04;21.50;99.90
55642;DHT22;41509;53.108;6.100;2023-06-19T12:00:29;21.60;99.90
55642;DHT22;41509;53.108;6.100;2023-06-19T12:02:55;21.70;99.90
55642;DHT22;41509;53.108;6.100;2023-06-19T12:05:22;22.00;99.90
55642;DHT22;41509;53.108;6.100;2023-06-19T12:07:48;22.10;99.90
55642;DHT22;41509;53.108;6.100;2023-06-19T12:10:13;22.30;99.90
55642;DHT22;41509;53.108;6.100;2023-06-19T12:12:39;22.30;99.90
55642;DHT22;41509;53.108;6.100;2023-06-19T12:15:04;22.30;99.90
55642;DHT22;41509;53.108;6.100;2023-06-19T12:17:30;22.30;99.90
55642;DHT22;41509;53.108;6.100;2023-06-19T12:19:56;22.40;99.90
55642;DHT22;41509;53.108;6.100;2023-06-19T12:22:22;22.50;99.90
55642;DHT22;41509;53.108;6.100;2023-06-19T12:24:48;22.60;99.90
55642;DHT22;41509;53.108;6.100;2023-06-19T12:27:13;22.60;99.90
55642;DHT22;41509;53.108;6.100;2023-06-19T12:29:39;22.70;99.90
55642;DHT22;41509;53.108;6.100;2023-06-19T12:32:05;22.70;99.90
55642;DHT22;41509;53.108;6.100;2023-06-19T12:34:33;22.90;99.90
55642;DHT22;41509;53.108;6.100;2023-06-19T12:36:59;23.00;99.90
55642;DHT22;41509;53.108;6.100;2023-06-19T12:39:27;23.10;99.90
55642;DHT22;41509;53.108;6.100;2023-06-19T12:41:52;23.20;99.90
55642;DHT22;41509;53.108;6.100;2023-06-19T12:44:18;23.30;99.90
55642;DHT22;41509;53.108;6.100;2023-06-19T12:46:44;23.30;99.90
55642;DHT22;41509;53.108;6.100;2023-06-19T12:49:09;23.40;99.90
55642;DHT22;41509;53.108;6.100;2023-06-19T12:51:35;23.40;99.90
55642;DHT22;41509;53.108;6.100;2023-06-19T12:54:01;23.50;99.90
55642;DHT22;41509;53.108;6.100;2023-06-19T12:56:26;23.50;99.90
55642;DHT22;41509;53.108;6.100;2023-06-19T12:58:52;23.60;99.90
55642;DHT22;41509;53.108;6.100;2023-06-19T13:01:17;23.60;99.90
55642;DHT22;41509;53.108;6.100;2023-06-19T13:03:43;23.80;99.90
55642;DHT22;41509;53.108;6.100;2023-06-19T13:06:08;23.80;99.90
55642;DHT22;41509;53.108;6.100;2023-06-19T13:08:34;23.80;99.90
55642;DHT22;41509;53.108;6.100;2023-06-19T13:10:59;24.00;99.90
55642;DHT22;41509;53.108;6.100;2023-06-19T13:13:25;24.20;99.90
55642;DHT22;41509;53.108;6.100;2023-06-19T13:15:50;24.20;99.90
55642;DHT22;41509;53.108;6.100;2023-06-19T13:18:17;24.30;99.90
55642;DHT22;41509;53.108;6.100;2023-06-19T13:20:43;24.30;99.90
55642;DHT22;41509;53.108;6.100;2023-06-19T13:23:10;24.50;99.90
55642;DHT22;41509;53.108;6.100;2023-06-19T13:25:35;24.60;99.90
55642;DHT22;41509;53.108;6.100;2023-06-19T13:28:01;24.60;99.90
55642;DHT22;41509;53.108;6.100;2023-06-19T13:30:26;24.70;99.90
55642;DHT22;41509;53.108;6.100;2023-06-19T13:32:54;24.70;99.90
55642;DHT22;41509;53.108;6.100;2023-06-19T13:35:20;24.80;99.90
55642;DHT22;41509;53.108;6.100;2023-06-19T13:37:47;24.80;99.90
55642;DHT22;41509;53.108;6.100;2023-06-19T13:40:12;24.80;99.90
55642;DHT22;41509;53.108;6.100;2023-06-19T13:42:38;24.90;99.90
55642;DHT22;41509;53.108;6.100;2023-06-19T13:45:04;24.90;99.90
55642;DHT22;41509;53.108;6.100;2023-06-19T13:47:32;24.90;99.90
55642;DHT22;41509;53.108;6.100;2023-06-19T13:49:58;24.80;99.90
55642;DHT22;41509;53.108;6.100;2023-06-19T13:52:23;24.80;99.90
55642;DHT22;41509;53.108;6.100;2023-06-19T13:54:49;24.80;99.90
55642;DHT22;41509;53.108;6.100;2023-06-19T13:57:14;24.80;99.90
55642;DHT22;41509;53.108;6.100;2023-06-19T13:59:40;24.90;99.90
55642;DHT22;41509;53.108;6.100;2023-06-19T14:02:06;25.00;99.90
55642;DHT22;41509;53.108;6.100;2023-06-19T14:04:32;25.20;99.90
55642;DHT22;41509;53.108;6.100;2023-06-19T14:06:57;25.50;99.90
55642;DHT22;41509;53.108;6.100;2023-06-19T14:09:25;25.70;99.90
55642;DHT22;41509;53.108;6.100;2023-06-19T14:11:51;25.70;99.90
55642;DHT22;41509;53.108;6.100;2023-06-19T14:14:16;25.60;99.90
55642;DHT22;41509;53.108;6.100;2023-06-19T14:16:42;25.60;99.90
55642;DHT22;41509;53.108;6.100;2023-06-19T14:19:07;25.60;99.90
55642;DHT22;41509;53.108;6.100;2023-06-19T14:21:33;25.60;99.90
55642;DHT22;41509;53.108;6.100;2023-06-19T14:23:58;25.60;99.90
55642;DHT22;41509;53.108;6.100;2023-06-19T14:26:27;25.60;99.90
55642;DHT22;41509;53.108;6.100;2023-06-19T14:28:52;25.70;99.90
55642;DHT22;41509;53.108;6.100;2023-06-19T14:31:23;25.70;99.90
55642;DHT22;41509;53.108;6.100;2023-06-19T14:33:48;25.70;99.90
55642;DHT22;41509;53.108;6.100;2023-06-19T14:36:14;25.80;99.80
55642;DHT22;41509;53.108;6.100;2023-06-19T14:38:39;25.70;99.10
55642;DHT22;41509;53.108;6.100;2023-06-19T14:41:06;25.80;99.80
55642;DHT22;41509;53.108;6.100;2023-06-19T14:43:31;25.80;99.80
55642;DHT22;41509;53.108;6.100;2023-06-19T14:45:58;25.80;99.90
55642;DHT22;41509;53.108;6.100;2023-06-19T14:48:23;25.90;99.90
55642;DHT22;41509;53.108;6.100;2023-06-19T14:50:49;26.00;99.20
55642;DHT22;41509;53.108;6.100;2023-06-19T14:53:15;26.00;98.70
55642;DHT22;41509;53.108;6.100;2023-06-19T14:55:40;25.90;98.30
55642;DHT22;41509;53.108;6.100;2023-06-19T14:58:11;25.80;99.10
55642;DHT22;41509;53.108;6.100;2023-06-19T15:00:37;25.70;98.80
55642;DHT22;41509;53.108;6.100;2023-06-19T15:03:07;25.90;97.80
55642;DHT22;41509;53.108;6.100;2023-06-19T15:05:33;25.80;98.00
55642;DHT22;41509;53.108;6.100;2023-06-19T15:07:58;25.80;97.10
55642;DHT22;41509;53.108;6.100;2023-06-19T15:10:26;25.80;98.00
55642;DHT22;41509;53.108;6.100;2023-06-19T15:12:51;25.90;97.80
55642;DHT22;41509;53.108;6.100;2023-06-19T15:15:17;25.90;97.60
55642;DHT22;41509;53.108;6.100;2023-06-19T15:17:42;26.00;98.60
55642;DHT22;41509;53.108;6.100;2023-06-19T15:20:08;26.00;97.80
55642;DHT22;41509;53.108;6.100;2023-06-19T15:22:36;26.00;98.50
55642;DHT22;41509;53.108;6.100;2023-06-19T15:25:02;26.10;94.20
55642;DHT22;41509;53.108;6.100;2023-06-19T15:27:28;26.10;94.60
55642;DHT22;41509;53.108;6.100;2023-06-19T15:29:53;26.00;94.30